Tiempo atmosférico en la estación meteorológica de Villafáfila, Zamora (690 m.)



Fecha
DESCASC
Temp. máxima en grados centígrados (hora)
DESCASC
Temp. mínima en grados centígrados (hora)
DESCASC
Temp. media en grados centígrados
DESCASC
Racha de viento máxima en m/sg (hora)
DESCASC
Velocidad máxima media en intervalos de 10 minutos(hora)
DESCASC
Precipitaciones diarias en mm
DESCASC
Precipitaciones de 00:00 a 06:00 en mm
DESCASC
Precipitaciones de 06:00 a 12:00 en mm
DESCASC
Precipitaciones de 12:00 a 18:00 en mm
DESCASC
Precipitaciones de 18:00 a 24:00 en mm
DESCASC
10-10-2019 24.2 (17:20) 5.4 (08:40) 14.8 9.72 (11:50) 6.67 (00:30) 0 0 0 0 0
09-10-2019 22.8 (17:10) 9 (08:50) 15.9 10.28 (23:50) 7.22 (23:50) 0 0 0 0 0
08-10-2019 29.3 (17:00) 8.3 (08:20) 18.8 9.17 (18:20) 6.11 (18:40) 0 0 0 0 0
07-10-2019 28 (18:00) 7.9 (08:10) 18 4.72 (17:10) 3.06 (01:20) 0 0 0 0 0
06-10-2019 25.8 (18:30) 6.3 (00:00) 16 6.94 (16:20) 3.61 (21:20) 0 0 0 0 0
05-10-2019 25.5 (17:20) 8 (07:50) 16.8 6.67 (17:40) 3.61 (18:20) 0 0 0 0 0
04-10-2019 25.3 (17:30) 8.1 (00:00) 16.7 7.22 (18:00) 4.17 (18:00) 0 0 0 0 0
03-10-2019 26.7 (18:00) 6.2 (00:00) 16.5 6.11 (01:50) 4.44 (01:20) 0 0 0 0 0
02-10-2019 22.9 (17:50) 6.3 (00:00) 14.6 8.89 (16:00) 5 (11:00) 0 0 0 0 0
01-10-2019 25.3 (16:20) 9.6 (00:00) 17.4 11.39 (17:50) 7.78 (18:40) 0 0 0 0 0
30-09-2019 28.1 (17:50) 9.8 (00:00) 19 10.83 (17:50) 5.56 (18:40) 0 0 0 0 0
29-09-2019 28.5 (16:20) 5 (00:00) 16.8 14.72 (15:50) 7.78 (18:20) 0 0 0 0 0
28-09-2019 25.7 (18:50) 6.1 (00:00) 15.9 5.56 (09:50) 3.33 (09:30) 0 0 0 0 0
27-09-2019 26.4 (16:50) 4.4 (00:00) 15.4 10 (18:00) 7.22 (18:00) 0 0 0 0 0
26-09-2019 27.1 (18:00) 7 (00:00) 17.1 7.78 (13:10) 4.72 (13:10) 0 0 0 0 0
25-09-2019 22.8 (17:50) 6.7 (00:00) 14.7 6.67 (19:10) 4.72 (00:10) 0 0 0 0 0
24-09-2019 23.9 (17:10) 11 (00:00) 17.4 16.67 (18:50) 9.44 (12:30) 0 0 0 0 0
23-09-2019 22.8 (18:30) 8.1 (00:00) 15.4 8.33 (13:40) 5.28 (19:50) 0 0 0 0 0
22-09-2019 21.2 (16:50) 11.1 (00:00) 16.2 12.22 (00:20) 8.33 (00:30) 0.4 0.4 0 0 0
21-09-2019 19.7 (00:00) 16.1 (00:00) 17.9 11.11 (18:20) 6.67 (14:20) 1.8 0 0.4 0.4 1
20-09-2019 27.5 (16:50) 13.7 (00:00) 20.6 11.39 (19:50) 6.39 (18:10) 0 0 0 0 0
19-09-2019 27.4 (18:30) 13.5 (00:00) 20.4 7.78 (15:00) 4.17 (01:30) 0 0 0 0 0
18-09-2019 26.5 (18:20) 13.4 (00:00) 19.9 8.89 (01:10) 6.39 (01:10) 0.4 0.4 0 0 0
17-09-2019 28.6 (17:00) 13.9 (00:00) 21.3 13.89 (22:40) 10 (22:40) 6.2 0 0 0 6.2
16-09-2019 26 (16:50) 15 (00:00) 20.5 10 (17:40) 6.11 (17:50) 0.4 0.2 0.2 0 0
15-09-2019 23.1 (14:50) 15.7 (00:00) 19.4 13.33 (15:30) 9.44 (15:20) 6 0.6 5 0.4 0
14-09-2019 29.5 (16:30) 15.3 (00:00) 22.4 14.17 (15:10) 10 (14:10) 0 0 0 0 0

Gráficas

Temp. máximas Temp. mínimas Temp. medias Precipitaciones Rachas de viento máximas Velocidades máximas media en intervalos de 10 minutos

Datos horarios

Fecha y hora oficial Temperatura (ºC) Velocidad del viento (km/h) Dirección del viento Racha (km/h) Dirección de racha Precipitación (mm) Presión (hPa) Tendencia (hPa) Humedad (%)
2019-10-13 23:00:00 13.9 5 Sur 13 Sur 0 -- -- 64
2019-10-13 22:00:00 14.6 9 Sur 20 Sur 0 -- -- 62
2019-10-13 21:00:00 17.2 15 Sur 26 Sur 0 -- -- 54
2019-10-13 20:00:00 18.4 17 Sudoeste 38 Sudoeste 0 -- -- 50
2019-10-13 19:00:00 20.6 23 Sudoeste 39 Sur 0 -- -- 44
2019-10-13 18:00:00 21.9 22 Sudoeste 41 Sur 0 -- -- 44
2019-10-13 17:00:00 22.4 22 Sur 43 Sur 0 -- -- 44
2019-10-13 16:00:00 22.3 20 Sur 35 Sur 0 -- -- 47
2019-10-13 15:00:00 21.1 21 Sur 39 Sur 0 -- -- 50
2019-10-13 14:00:00 20.4 21 Sur 35 Sudoeste 0 -- -- 53
2019-10-13 13:00:00 18.1 23 Sudoeste 37 Sudoeste 0 -- -- 60
2019-10-13 12:00:00 16.9 19 Sudoeste 39 Sudoeste 0 -- -- 65
2019-10-13 11:00:00 15.8 26 Sudoeste 41 Sudoeste 0 -- -- 68
2019-10-13 10:00:00 14.8 14 Sur 26 Sudoeste 0 -- -- 74
2019-10-13 09:00:00 12.7 17 Sudoeste 29 Sudoeste 0 -- -- 81
2019-10-13 08:00:00 13 18 Sudoeste 36 Sudoeste 0 -- -- 79
2019-10-13 07:00:00 12.2 6 Sur 12 Sur 0 -- -- 86
2019-10-13 06:00:00 13.3 8 Sur 19 Sur 0 -- -- 84
2019-10-13 05:00:00 14 12 Sur 24 Sur 0 -- -- 82
2019-10-13 04:00:00 14 9 Sur 17 Sur 0 -- -- 80
2019-10-13 03:00:00 14.7 11 Sur 19 Sur 0 -- -- 76
2019-10-13 02:00:00 14.7 6 Sur 13 Sur 0 -- -- 64
2019-10-13 01:00:00 16.6 7 Sur 17 Sur 0 -- -- 55
2019-10-13 00:00:00 18.5 12 Sur 26 Sur 0 -- -- 49
2019-10-12 23:00:00 19.7 17 Sur 23 Sur 0 -- -- 47
2019-10-12 22:00:00 20.9 13 Sur 29 Sur 0 -- -- 44
2019-10-12 21:00:00 22.3 18 Sur 26 Sur 0 -- -- 41
2019-10-12 20:00:00 24.2 18 Sur 42 Sur 0 -- -- 37
2019-10-12 19:00:00 25.8 24 Sur 51 Sudoeste 0 -- -- 33
2019-10-12 18:00:00 26.9 28 Sudoeste 59 Sudoeste 0 -- -- 30
2019-10-12 17:00:00 26.7 29 Sur 48 Sur 0 -- -- 32
2019-10-12 16:00:00 26.9 27 Sudoeste 51 Sur 0 -- -- 31
2019-10-12 15:00:00 27.4 26 Sudoeste 46 Sur 0 -- -- 31
2019-10-12 14:00:00 25.8 21 Sur 37 Sur 0 -- -- 39
2019-10-12 13:00:00 23.8 13 Sur 26 Sur 0 -- -- 46
2019-10-12 12:00:00 21.7 13 Sur 22 Sur 0 -- -- 54
2019-10-12 11:00:00 18.5 0 Calma 5 Sudeste 0 -- -- 64
2019-10-12 10:00:00 16 2 Sudoeste 8 Sur 0 -- -- 69
2019-10-12 09:00:00 14.3 5 Sur 11 Sudeste 0 -- -- 76
2019-10-12 08:00:00 13.8 5 Sur 6 Sur 0 -- -- 77
2019-10-12 07:00:00 14 4 Sur 6 Sur 0 -- -- 74
2019-10-12 06:00:00 13.8 0 Calma 8 Oeste 0 -- -- 70
2019-10-12 05:00:00 16.7 4 Sudoeste 13 Sur 0 -- -- 65
2019-10-12 04:00:00 16.7 5 Sudoeste 12 Sur 0 -- -- 65
2019-10-12 03:00:00 15.5 6 Sur 9 Sur 0 -- -- 71
2019-10-12 02:00:00 15.5 4 Sudeste 11 Sur 0 -- -- 69
2019-10-12 01:00:00 16 9 Sur 13 Sur 0 -- -- 68
2019-10-12 00:00:00 17.2 8 Sur 20 Sur 0 -- -- 62
2019-10-11 23:00:00 18.3 10 Sur 14 Sur 0 -- -- 59
2019-10-11 22:00:00 20.3 8 Sudoeste 21 Sudoeste 0 -- -- 54
2019-10-11 21:00:00 22.7 13 Sudoeste 23 Sur 0 -- -- 47
2019-10-11 20:00:00 24.1 10 Sudoeste 23 Sudoeste 0 -- -- 41
2019-10-11 19:00:00 26.5 15 Sudoeste 32 Sudoeste 0 -- -- 38
2019-10-11 18:00:00 27 5 Sur 21 Sur 0 -- -- 37
2019-10-11 17:00:00 27.3 10 Sur 22 Sudoeste 0 -- -- 34
2019-10-11 16:00:00 26.8 12 Sudoeste 23 Sudoeste 0 -- -- 34
2019-10-11 15:00:00 25 8 Sur 19 Sur 0 -- -- 36
2019-10-11 14:00:00 22.3 6 Sur 11 Sur 0 -- -- 40
2019-10-11 13:00:00 19.8 2 Este 8 Nordeste 0 -- -- 44
2019-10-11 12:00:00 16.6 4 Norte 10 Noroeste 0 -- -- 50
2019-10-11 11:00:00 13 5 Norte 11 Noroeste 0 -- -- 61
2019-10-11 10:00:00 9.5 8 Noroeste 13 Noroeste 0 -- -- 74
2019-10-11 09:00:00 6 9 Noroeste 14 Noroeste 0 -- -- 85
2019-10-11 08:00:00 5.5 6 Noroeste 12 Noroeste 0 -- -- 85
2019-10-11 07:00:00 6.1 11 Noroeste 13 Noroeste 0 -- -- 85
2019-10-11 06:00:00 6.4 11 Noroeste 15 Noroeste 0 -- -- 84
2019-10-11 05:00:00 7 10 Noroeste 15 Noroeste 0 -- -- 82
2019-10-11 04:00:00 7.4 10 Noroeste 13 Noroeste 0 -- -- 79
2019-10-11 03:00:00 8.5 10 Noroeste 14 Noroeste 0 -- -- 76
2019-10-11 02:00:00 9.2 11 Noroeste 14 Noroeste 0 -- -- 74
2019-10-11 01:00:00 9.7 0 Calma 5 Norte 0 -- -- 61
2019-10-11 00:00:00 10.6 3 Norte 7 Noroeste 0 -- -- 56
2019-10-10 23:00:00 11.2 6 Noroeste 8 Noroeste 0 -- -- 56
2019-10-10 22:00:00 13 5 Noroeste 9 Norte 0 -- -- 49
2019-10-10 21:00:00 15 9 Norte 10 Norte 0 -- -- 44
2019-10-10 20:00:00 20 2 Nordeste 8 Nordeste 0 -- -- 34
2019-10-10 19:00:00 23.4 5 Nordeste 14 Nordeste 0 -- -- 30
2019-10-10 18:00:00 24.1 7 Nordeste 16 Nordeste 0 -- -- 29
2019-10-10 17:00:00 24.1 9 Este 18 Este 0 -- -- 31
2019-10-10 16:00:00 23.2 10 Nordeste 27 Nordeste 0 -- -- 33
2019-10-10 15:00:00 22 14 Nordeste 24 Nordeste 0 -- -- 37
2019-10-10 14:00:00 20.7 15 Nordeste 27 Nordeste 0 -- -- 42
2019-10-10 13:00:00 19.2 17 Nordeste 27 Nordeste 0 -- -- 48
2019-10-10 12:00:00 16.9 17 Nordeste 35 Este 0 -- -- 54
2019-10-10 11:00:00 13.9 17 Nordeste 28 Norte 0 -- -- 63
2019-10-10 10:00:00 9.5 14 Norte 20 Norte 0 -- -- 81
2019-10-10 09:00:00 5.9 13 Noroeste 17 Noroeste 0 -- -- 91
2019-10-10 08:00:00 5.9 13 Noroeste 16 Noroeste 0 -- -- 90
2019-10-10 07:00:00 6.6 12 Norte 17 Norte 0 -- -- 88
2019-10-10 06:00:00 6.4 11 Noroeste 15 Norte 0 -- -- 89
2019-10-10 05:00:00 7.7 10 Norte 18 Norte 0 -- -- 86
2019-10-10 04:00:00 7.9 11 Norte 15 Nordeste 0 -- -- 84
2019-10-10 03:00:00 9.8 12 Norte 24 Nordeste 0 -- -- 77
2019-10-10 02:00:00 10.3 14 Norte 21 Norte 0 -- -- 75
2019-10-10 01:00:00 11.3 15 Nordeste 34 Este 0 -- -- 71
2019-10-10 00:00:00 12.3 23 Este 37 Este 0 -- -- 65
2019-10-09 23:00:00 13.6 18 Nordeste 31 Nordeste 0 -- -- 61
2019-10-09 22:00:00 12.4 12 Norte 21 Noroeste 0 -- -- 46
2019-10-09 21:00:00 13.9 9 Norte 12 Norte 0 -- -- 42
2019-10-09 20:00:00 18.1 8 Norte 14 Norte 0 -- -- 33
2019-10-09 19:00:00 21.7 10 Norte 18 Noroeste 0 -- -- 30
2019-10-09 18:00:00 22.3 12 Noroeste 20 Norte 0 -- -- 33
2019-10-09 17:00:00 22.7 9 Norte 19 Noroeste 0 -- -- 34
2019-10-09 16:00:00 22.3 14 Norte 24 Noroeste 0 -- -- 35
2019-10-09 15:00:00 21.2 9 Nordeste 23 Norte 0 -- -- 40
2019-10-09 14:00:00 20.6 13 Norte 27 Norte 0 -- -- 45
2019-10-09 13:00:00 19 15 Norte 26 Norte 0 -- -- 45
2019-10-09 12:00:00 17.4 15 Norte 28 Noroeste 0 -- -- 46
2019-10-09 11:00:00 14.9 21 Norte 28 Noroeste 0 -- -- 52
2019-10-09 10:00:00 12 13 Noroeste 18 Noroeste 0 -- -- 68
2019-10-09 09:00:00 9.2 12 Noroeste 17 Noroeste 0 -- -- 81
2019-10-09 08:00:00 9.8 13 Noroeste 26 Norte 0 -- -- 76
2019-10-09 07:00:00 12.2 22 Norte 32 Norte 0 -- -- 70
2019-10-09 06:00:00 13.7 16 Norte 28 Norte 0 -- -- 74
2019-10-09 05:00:00 13.9 14 Norte 21 Norte 0 -- -- 80
2019-10-09 04:00:00 13.5 10 Noroeste 14 Noroeste 0 -- -- 86
2019-10-09 03:00:00 12.8 6 Este 11 Noroeste 0 -- -- 83
2019-10-09 02:00:00 14.4 5 Noroeste 7 Noroeste 0 -- -- 80
2019-10-09 01:00:00 15.3 6 Noroeste 10 Noroeste 0 -- -- 78
2019-10-09 00:00:00 16.1 9 Norte 12 Norte 0 -- -- 74
2019-10-08 23:00:00 17.6 9 Norte 14 Oeste 0 -- -- 65
2019-10-08 22:00:00 19.5 7 Oeste 17 Oeste 0 -- -- 59
2019-10-08 21:00:00 21.7 12 Oeste 22 Oeste 0 -- -- 53
2019-10-08 20:00:00 24.2 18 Sudoeste 28 Oeste 0 -- -- 47
2019-10-08 19:00:00 27 20 Sudoeste 33 Sudoeste 0 -- -- 41
2019-10-08 18:00:00 28.6 16 Sudoeste 31 Sudoeste 0 -- -- 37
2019-10-08 17:00:00 29.3 21 Oeste 32 Sudoeste 0 -- -- 35
2019-10-08 16:00:00 28.8 19 Sudoeste 30 Sudoeste 0 -- -- 35
2019-10-08 15:00:00 27.1 13 Sur 20 Sur 0 -- -- 39
2019-10-08 14:00:00 24.8 8 Sudoeste 14 Sudoeste 0 -- -- 40
2019-10-08 13:00:00 22.1 6 Oeste 13 Oeste 0 -- -- 43
2019-10-08 12:00:00 19.7 6 Oeste 14 Oeste 0 -- -- 47
2019-10-08 11:00:00 16.3 6 Noroeste 12 Noroeste 0 -- -- 55
2019-10-08 10:00:00 12.8 0 Calma 6 Noroeste 0 -- -- 71
2019-10-08 09:00:00 9 4 Noroeste 13 Noroeste 0 -- -- 84
2019-10-08 08:00:00 8.5 5 Noroeste 10 Noroeste 0 -- -- 83
2019-10-08 07:00:00 8.9 2 Noroeste 10 Noroeste 0 -- -- 79
2019-10-08 06:00:00 9.3 8 Noroeste 13 Noroeste 0 -- -- 81
2019-10-08 05:00:00 9.3 6 Noroeste 12 Noroeste 0 -- -- 76
2019-10-08 04:00:00 10.1 4 Noroeste 8 Noroeste 0 -- -- 73
2019-10-08 03:00:00 10.8 0 Calma 6 Noroeste 0 -- -- 63
2019-10-08 02:00:00 11.6 6 Norte 9 Noroeste 0 -- -- 57
2019-10-08 01:00:00 12.4 6 Este 10 Este 0 -- -- 55
2019-10-08 00:00:00 13.5 0 Calma 0 Calma 0 -- -- 52
2019-10-07 23:00:00 15.2 0 Calma 3 Nordeste 0 -- -- 47
2019-10-07 22:00:00 16.9 0 Calma 7 Este 0 -- -- 44
2019-10-07 21:00:00 18.7 6 Este 11 Este 0 -- -- 41
2019-10-07 20:00:00 22.3 9 Sudeste 13 Sudeste 0 -- -- 36
2019-10-07 19:00:00 27.2 6 Sudeste 10 Este 0 -- -- 29
2019-10-07 18:00:00 28 0 Calma 17 Sudoeste 0 -- -- 28
2019-10-07 17:00:00 27.6 2 Sudeste 12 Sudeste 0 -- -- 27
2019-10-07 16:00:00 26.2 4 Sudoeste 12 Oeste 0 -- -- 28
2019-10-07 15:00:00 24.7 6 Sudoeste 11 Sur 0 -- -- 29
2019-10-07 14:00:00 22.6 3 Sur 8 Sur 0 -- -- 39
2019-10-07 13:00:00 20 3 Sur 9 Sudoeste 0 -- -- 51
2019-10-07 12:00:00 17.8 2 Sudeste 7 Sur 0 -- -- 59
2019-10-07 11:00:00 14.7 3 Noroeste 9 Norte 0 -- -- 72
2019-10-07 10:00:00 11.8 6 Norte 10 Noroeste 0 -- -- 84
2019-10-07 09:00:00 8.6 6 Noroeste 9 Noroeste 0 -- -- 91
2019-10-07 08:00:00 8 8 Noroeste 10 Noroeste 0 -- -- 90
2019-10-07 07:00:00 8.5 5 Norte 8 Norte 0 -- -- 87
2019-10-07 06:00:00 9.5 2 Noroeste 10 Nordeste 0 -- -- 83
2019-10-07 05:00:00 9.8 9 Norte 11 Nordeste 0 -- -- 86
2019-10-07 04:00:00 10.9 0 Calma 4 Norte 0 -- -- 82
2019-10-07 03:00:00 11.6 2 Oeste 8 Nordeste 0 -- -- 77
2019-10-07 02:00:00 12.2 3 Nordeste 13 Nordeste 0 -- -- 73
2019-10-07 01:00:00 12.9 3 Norte 13 Este 0 -- -- 61
2019-10-07 00:00:00 13.7 3 Sudoeste 13 Norte 0 -- -- 57
2019-10-06 23:00:00 14.5 5 Norte 14 Noroeste 0 -- -- 52
2019-10-06 22:00:00 16.5 8 Oeste 17 Oeste 0 -- -- 50
2019-10-06 21:00:00 19.2 12 Oeste 15 Oeste 0 -- -- 45
2019-10-06 20:00:00 22.3 10 Oeste 19 Sudoeste 0 -- -- 35
2019-10-06 19:00:00 25.6 10 Sudoeste 24 Sudoeste 0 -- -- 29
2019-10-06 18:00:00 25.4 5 Sudoeste 17 Sur 0 -- -- 31
2019-10-06 17:00:00 25.3 7 Sudoeste 25 Oeste 0 -- -- 36
2019-10-06 16:00:00 24.2 3 Oeste 14 Sudoeste 0 -- -- 40
2019-10-06 15:00:00 23.1 4 Sur 13 Oeste 0 -- -- 44
2019-10-06 14:00:00 21.5 4 Sudoeste 10 Oeste 0 -- -- 48
2019-10-06 13:00:00 20 3 Oeste 15 Este 0 -- -- 53
2019-10-06 12:00:00 18.2 10 Este 16 Este 0 -- -- 61
2019-10-06 11:00:00 15.5 8 Este 13 Nordeste 0 -- -- 71
2019-10-06 10:00:00 12.7 12 Nordeste 17 Este 0 -- -- 82
2019-10-06 09:00:00 6.8 7 Noroeste 14 Noroeste 0 -- -- 90
2019-10-06 08:00:00 6.3 0 Calma 6 Noroeste 0 -- -- 86
2019-10-06 07:00:00 6.7 5 Noroeste 9 Noroeste 0 -- -- 87
2019-10-06 06:00:00 6.6 3 Noroeste 8 Noroeste 0 -- -- 84
2019-10-06 05:00:00 6.9 2 Noroeste 11 Noroeste 0 -- -- 84
2019-10-06 04:00:00 8 7 Oeste 8 Noroeste 0 -- -- 81
2019-10-06 03:00:00 9 3 Noroeste 4 Oeste 0 -- -- 76
2019-10-06 02:00:00 9.9 0 Calma 6 Noroeste 0 -- -- 73
2019-10-06 01:00:00 11.3 2 Sudoeste 8 Oeste 0 -- -- 72
2019-10-06 00:00:00 12.8 6 Sur 9 Sur 0 -- -- 71
2019-10-05 23:00:00 15.1 5 Sudoeste 8 Sur 0 -- -- 60
2019-10-05 22:00:00 16.8 4 Sur 16 Sudoeste 0 -- -- 59
2019-10-05 21:00:00 18.7 13 Sudoeste 17 Sudoeste 0 -- -- 50
2019-10-05 20:00:00 21 12 Sudoeste 18 Sudoeste 0 -- -- 42
2019-10-05 19:00:00 24.6 11 Sudoeste 21 Sudoeste 0 -- -- 37
2019-10-05 18:00:00 25.3 12 Sudoeste 24 Oeste 0 -- -- 38
2019-10-05 17:00:00 25.1 4 Noroeste 15 Sudoeste 0 -- -- 42
2019-10-05 16:00:00 23.3 8 Sudoeste 16 Sudoeste 0 -- -- 46
2019-10-05 15:00:00 21.4 7 Sudoeste 13 Sudoeste 0 -- -- 55
2019-10-05 14:00:00 19.2 3 Noroeste 14 Noroeste 0 -- -- 62
2019-10-05 13:00:00 17.1 9 Noroeste 17 Noroeste 0 -- -- 69
2019-10-05 12:00:00 16.5 7 Norte 17 Noroeste 0 -- -- 72
2019-10-05 11:00:00 14.5 9 Norte 15 Norte 0 -- -- 79
2019-10-05 10:00:00 12.3 10 Norte 13 Norte 0 -- -- 89
2019-10-05 09:00:00 9.1 9 Noroeste 13 Noroeste 0 -- -- 93
2019-10-05 08:00:00 8 8 Noroeste 13 Noroeste 0 -- -- 93
2019-10-05 07:00:00 8.2 8 Noroeste 13 Noroeste 0 -- -- 92
2019-10-05 06:00:00 8.4 7 Noroeste 13 Noroeste 0 -- -- 90
2019-10-05 05:00:00 8.7 7 Noroeste 9 Noroeste 0 -- -- 87
2019-10-05 04:00:00 9.9 6 Nordeste 14 Nordeste 0 -- -- 85
2019-10-05 03:00:00 10.1 3 Noroeste 6 Noroeste 0 -- -- 81
2019-10-05 02:00:00 10.8 0 Calma 3 Nordeste 0 -- -- 79
2019-10-05 01:00:00 11.7 0 Calma 2 Noroeste 0 -- -- 74
2019-10-05 00:00:00 13 0 Calma 8 Noroeste 0 -- -- 69
2019-10-04 23:00:00 14 0 Calma 6 Sudoeste 0 -- -- 65
2019-10-04 22:00:00 16.9 5 Sudoeste 9 Sudoeste 0 -- -- 60
2019-10-04 21:00:00 19 5 Sudoeste 15 Sudoeste 0 -- -- 52
2019-10-04 20:00:00 22.1 12 Sudoeste 21 Sudoeste 0 -- -- 46
2019-10-04 19:00:00 24.3 15 Sudoeste 24 Sudoeste 0 -- -- 42
2019-10-04 18:00:00 25.2 15 Sudoeste 26 Sudoeste 0 -- -- 42
2019-10-04 17:00:00 25.1 10 Sur 22 Sudoeste 0 -- -- 42
2019-10-04 16:00:00 24.1 11 Sur 19 Sudoeste 0 -- -- 47
2019-10-04 15:00:00 23 13 Sur 25 Sudeste 0 -- -- 53
2019-10-04 14:00:00 21.9 6 Sur 13 Sur 0 -- -- 58
2019-10-04 13:00:00 20 4 Sur 10 Sur 0 -- -- 62
2019-10-04 12:00:00 18.7 2 Sudeste 8 Sur 0 -- -- 65
2019-10-04 11:00:00 16.4 0 Calma 6 Sudeste 0 -- -- 73
2019-10-04 10:00:00 12.6 2 Noroeste 4 Oeste 0 -- -- 81
2019-10-04 09:00:00 9 2 Noroeste 6 Oeste 0 -- -- 88
2019-10-04 08:00:00 8.1 3 Noroeste 7 Sur 0 -- -- 85
2019-10-04 07:00:00 8.9 0 Calma 4 Sur 0 -- -- 83
2019-10-04 06:00:00 10 0 Calma 7 Sudoeste 0 -- -- 80
2019-10-04 05:00:00 10.2 2 Sudoeste 8 Sur 0 -- -- 79
2019-10-04 04:00:00 10.7 0 Calma 4 Sudoeste 0 -- -- 82
2019-10-04 03:00:00 11.7 4 Sudoeste 12 Sur 0 -- -- 76
2019-10-04 02:00:00 12.6 13 Sudoeste 15 Sudoeste 0 -- -- 73
2019-10-04 01:00:00 13.3 5 Oeste 8 Sudoeste 0 -- -- 70
2019-10-04 00:00:00 14.5 2 Oeste 13 Noroeste 0 -- -- 67
2019-10-03 23:00:00 15.4 8 Noroeste 12 Noroeste 0 -- -- 60
2019-10-03 22:00:00 17.9 7 Oeste 19 Sudoeste 0 -- -- 48
2019-10-03 21:00:00 19.6 11 Sudoeste 15 Sudoeste 0 -- -- 40
2019-10-03 20:00:00 23.7 8 Sur 15 Sur 0 -- -- 34
2019-10-03 19:00:00 26.5 5 Sudoeste 15 Sur 0 -- -- 29
2019-10-03 18:00:00 26.7 8 Sudoeste 18 Sudoeste 0 -- -- 27
2019-10-03 17:00:00 26.3 5 Sudoeste 19 Sudoeste 0 -- -- 29
2019-10-03 16:00:00 25.1 7 Sudoeste 14 Oeste 0 -- -- 32
2019-10-03 15:00:00 23.3 6 Sudoeste 16 Oeste 0 -- -- 39
2019-10-03 14:00:00 20.8 9 Sudoeste 17 Sudoeste 0 -- -- 46
2019-10-03 13:00:00 18.2 3 Sur 10 Oeste 0 -- -- 55
2019-10-03 12:00:00 15.8 0 Calma 10 Sudeste 0 -- -- 63
2019-10-03 11:00:00 13.8 5 Nordeste 10 Noroeste 0 -- -- 71
2019-10-03 10:00:00 9.9 5 Noroeste 9 Noroeste 0 -- -- 84
2019-10-03 09:00:00 6.5 6 Oeste 10 Oeste 0 -- -- 90
2019-10-03 08:00:00 6.4 9 Noroeste 15 Noroeste 0 -- -- 90
2019-10-03 07:00:00 6.8 8 Noroeste 11 Noroeste 0 -- -- 88
2019-10-03 06:00:00 7.9 10 Noroeste 13 Norte 0 -- -- 87
2019-10-03 05:00:00 7.9 9 Norte 14 Norte 0 -- -- 85
2019-10-03 04:00:00 8.9 7 Norte 9 Norte 0 -- -- 77
2019-10-03 03:00:00 10.4 0 Calma 15 Este 0 -- -- 74
2019-10-03 02:00:00 11.4 13 Este 22 Este 0 -- -- 71
2019-10-03 01:00:00 11.7 15 Nordeste 20 Nordeste 0 -- -- 65
2019-10-03 00:00:00 9.9 6 Nordeste 21 Nordeste 0 -- -- 62
2019-10-02 23:00:00 11.6 0 Calma -- -- 0 -- -- 58
2019-10-02 22:00:00 13.2 0 Calma 8 Este 0 -- -- 53
2019-10-02 21:00:00 15.5 0 Calma -- -- 0 -- -- 46
2019-10-02 20:00:00 19.7 2 Nordeste 9 Oeste 0 -- -- 39
2019-10-02 19:00:00 22.2 3 Norte 9 Norte 0 -- -- 35
2019-10-02 18:00:00 22.7 6 Nordeste 12 Norte 0 -- -- 35
2019-10-02 17:00:00 22.5 9 Norte 18 Nordeste 0 -- -- 35
2019-10-02 16:00:00 21.8 8 Norte 32 Nordeste 0 -- -- 35
2019-10-02 15:00:00 21.1 10 Norte 24 Noroeste 0 -- -- 37
2019-10-02 14:00:00 20.1 12 Noroeste 22 Norte 0 -- -- 39
2019-10-02 13:00:00 19.8 13 Norte 27 Norte 0 -- -- 42
2019-10-02 12:00:00 17.9 14 Noroeste 24 Noroeste 0 -- -- 46
2019-10-02 11:00:00 15.4 18 Noroeste 27 Noroeste 0 -- -- 56
2019-10-02 10:00:00 10.2 10 Sudoeste 13 Sudoeste 0 -- -- 79
2019-10-02 09:00:00 7.3 8 Sur 14 Sur 0 -- -- 86
2019-10-02 08:00:00 6.8 12 Sudeste 18 Sudeste 0 -- -- 86
2019-10-02 07:00:00 6.3 6 Noroeste 9 Noroeste 0 -- -- 85
2019-10-02 06:00:00 7.3 4 Nordeste 14 Oeste 0 -- -- 80
2019-10-02 05:00:00 8.5 10 Sudoeste 13 Sudoeste 0 -- -- 80
2019-10-02 04:00:00 9.3 6 Sudoeste 14 Oeste 0 -- -- 81
2019-10-02 03:00:00 9.8 9 Oeste 13 Oeste 0 -- -- 78
2019-10-02 02:00:00 10.5 4 Sudoeste 12 Sudoeste 0 -- -- 74
2019-10-02 01:00:00 11.4 9 Oeste 15 Oeste 0 -- -- 73
2019-10-02 00:00:00 12.8 7 Oeste 17 Oeste 0 -- -- 68
2019-10-01 23:00:00 14.4 14 Oeste 21 Oeste 0 -- -- 62
2019-10-01 22:00:00 17 19 Oeste 29 Oeste 0 -- -- 54
2019-10-01 21:00:00 18.5 21 Oeste 35 Oeste 0 -- -- 48
2019-10-01 20:00:00 20.7 17 Oeste 39 Oeste 0 -- -- 44
2019-10-01 19:00:00 23.1 25 Oeste 39 Sudoeste 0 -- -- 39
2019-10-01 18:00:00 24.5 25 Oeste 41 Oeste 0 -- -- 36
2019-10-01 17:00:00 25.1 24 Sudoeste 37 Sudoeste 0 -- -- 36
2019-10-01 16:00:00 24.5 11 Oeste 37 Oeste 0 -- -- 40
2019-10-01 15:00:00 23.5 13 Oeste 31 Oeste 0 -- -- 43
2019-10-01 14:00:00 23.1 10 Sudoeste 24 Oeste 0 -- -- 47
2019-10-01 13:00:00 21.9 16 Oeste 29 Sudoeste 0 -- -- 52
2019-10-01 12:00:00 19.1 13 Oeste 23 Oeste 0 -- -- 61
2019-10-01 11:00:00 17 10 Sudoeste 15 Sudoeste 0 -- -- 68
2019-10-01 10:00:00 15.6 9 Sudoeste 13 Sudoeste 0 -- -- 77
2019-10-01 09:00:00 12.2 7 Sudoeste 11 Oeste 0 -- -- 90
2019-10-01 08:00:00 9.6 3 Sudoeste 10 Sudoeste 0 -- -- 84
2019-10-01 07:00:00 10.4 5 Oeste 8 Oeste 0 -- -- 82
2019-10-01 06:00:00 12.2 0 Calma 9 Sudoeste 0 -- -- 76
2019-10-01 05:00:00 13.4 5 Sur 8 Sudeste 0 -- -- 77
2019-10-01 04:00:00 12.7 3 Sur 6 Sur 0 -- -- 76
2019-10-01 03:00:00 12.4 0 Calma 9 Este 0 -- -- 74
2019-10-01 02:00:00 13.6 0 Calma 5 Sur 0 -- -- 67
2019-10-01 01:00:00 15.9 6 Sur 11 Sur 0 -- -- 65
2019-10-01 00:00:00 15.8 4 Oeste 6 Oeste 0 -- -- 65
2019-09-30 23:00:00 16.1 0 Calma 11 Noroeste 0 -- -- 58
2019-09-30 22:00:00 18 12 Noroeste 15 Oeste 0 -- -- 54
2019-09-30 21:00:00 22 13 Oeste 18 Oeste 0 -- -- 44
2019-09-30 20:00:00 25.3 14 Oeste 25 Oeste 0 -- -- 39
2019-09-30 19:00:00 27.4 17 Sudoeste 28 Sudoeste 0 -- -- 36
2019-09-30 18:00:00 28.1 16 Sudoeste 39 Sudoeste 0 -- -- 36
2019-09-30 17:00:00 28 8 Sudoeste 25 Sudoeste 0 -- -- 39
2019-09-30 16:00:00 27.3 13 Sur 25 Sur 0 -- -- 42
2019-09-30 15:00:00 26.2 10 Sur 23 Sudoeste 0 -- -- 46
2019-09-30 14:00:00 24.9 9 Sudoeste 18 Sur 0 -- -- 52
2019-09-30 13:00:00 22.9 8 Sur 16 Sur 0 -- -- 58
2019-09-30 12:00:00 20.6 6 Sur 14 Sudeste 0 -- -- 66
2019-09-30 11:00:00 18.4 3 Sur 6 Sudoeste 0 -- -- 74
2019-09-30 10:00:00 14.6 3 Sudoeste 6 Sudoeste 0 -- -- 82
2019-09-30 09:00:00 11.5 6 Sudoeste 6 Sudoeste 0 -- -- 90
2019-09-30 08:00:00 10.1 0 Calma 6 Sur 0 -- -- 87
2019-09-30 07:00:00 10.2 0 Calma 4 Sudeste 0 -- -- 85
2019-09-30 06:00:00 10.6 3 Este 4 Este 0 -- -- 86
2019-09-30 05:00:00 11.1 0 Calma 4 Sudeste 0 -- -- 85
2019-09-30 04:00:00 11.9 0 Calma 9 Sur 0 -- -- 83
2019-09-30 03:00:00 12.9 4 Sur 7 Sur 0 -- -- 85
2019-09-30 02:00:00 14.2 4 Sudoeste 8 Sudoeste 0 -- -- 84
2019-09-30 01:00:00 15.5 3 Este 8 Noroeste 0 -- -- 77
2019-09-30 00:00:00 17.2 6 Norte 18 Norte 0 -- -- 74
2019-09-29 23:00:00 18 11 Norte 22 Noroeste 0 -- -- 67
2019-09-29 22:00:00 19.5 5 Noroeste 21 Sudoeste 0 -- -- 54
2019-09-29 21:00:00 21.9 14 Oeste 29 Oeste 0 -- -- 49
2019-09-29 20:00:00 24.1 19 Sudoeste 36 Sudoeste 0 -- -- 43
2019-09-29 19:00:00 26.4 25 Oeste 39 Oeste 0 -- -- 36
2019-09-29 18:00:00 27.8 24 Sudoeste 39 Oeste 0 -- -- 30
2019-09-29 17:00:00 28.2 23 Sudoeste 46 Sudoeste 0 -- -- 28
2019-09-29 16:00:00 28.2 22 Sudoeste 53 Sudoeste 0 -- -- 27
2019-09-29 15:00:00 27.7 24 Sudoeste 38 Sudoeste 0 -- -- 28
2019-09-29 14:00:00 26.4 18 Sudoeste 40 Sudoeste 0 -- -- 29
2019-09-29 13:00:00 23.8 11 Sudoeste 27 Sur 0 -- -- 31
2019-09-29 12:00:00 18.3 5 Sudoeste 14 Oeste 0 -- -- 45
2019-09-29 11:00:00 14.1 3 Noroeste 9 Noroeste 0 -- -- 61
2019-09-29 10:00:00 10 4 Noroeste 9 Noroeste 0 -- -- 75
2019-09-29 09:00:00 5.8 4 Noroeste 9 Noroeste 0 -- -- 86
2019-09-29 08:00:00 5.3 6 Noroeste 17 Noroeste 0 -- -- 84
2019-09-29 07:00:00 6.8 5 Sur 7 Sur 0 -- -- 78
2019-09-29 06:00:00 7.1 4 Noroeste 12 Noroeste 0 -- -- 74
2019-09-29 05:00:00 7.9 0 Calma 12 Noroeste 0 -- -- 69
2019-09-29 04:00:00 8.9 6 Sur 9 Sur 0 -- -- 65
2019-09-29 03:00:00 9.2 0 Calma 6 Norte 0 -- -- 64
2019-09-29 02:00:00 9.9 2 Sur 9 Sur 0 -- -- 59
2019-09-29 01:00:00 11.4 0 Calma 12 Noroeste 0 -- -- 53
2019-09-29 00:00:00 12.9 3 Noroeste 10 Oeste 0 -- -- 45
2019-09-28 23:00:00 14.4 5 Oeste 8 Sudoeste 0 -- -- 39
2019-09-28 22:00:00 15.4 5 Noroeste 10 Oeste 0 -- -- 37
2019-09-28 21:00:00 20.1 5 Sudoeste 13 Sudoeste 0 -- -- 33
2019-09-28 20:00:00 23.7 6 Sur 15 Sur 0 -- -- 33
2019-09-28 19:00:00 25.6 12 Sur 17 Sudoeste 0 -- -- 28
2019-09-28 18:00:00 25.4 8 Sudoeste 17 Sudoeste 0 -- -- 29
2019-09-28 17:00:00 24.7 7 Sur 14 Sur 0 -- -- 34
2019-09-28 16:00:00 23.3 5 Sur 14 Sudeste 0 -- -- 39
2019-09-28 15:00:00 21.8 4 Este 13 Sur 0 -- -- 46
2019-09-28 14:00:00 19.9 6 Sudoeste 12 Sudoeste 0 -- -- 58
2019-09-28 13:00:00 17.6 4 Norte 17 Norte 0 -- -- 63
2019-09-28 12:00:00 14.5 11 Norte 19 Norte 0 -- -- 77
2019-09-28 11:00:00 10.9 10 Norte 18 Norte 0 -- -- 93
2019-09-28 10:00:00 9.2 11 Norte 20 Noroeste 0 -- -- 94
2019-09-28 09:00:00 6.9 5 Noroeste 8 Noroeste 0 -- -- 92
2019-09-28 08:00:00 6.1 4 Noroeste 11 Noroeste 0 -- -- 91
2019-09-28 07:00:00 6.5 3 Oeste 9 Noroeste 0 -- -- 90
2019-09-28 06:00:00 6.5 2 Norte 8 Noroeste 0 -- -- 87
2019-09-28 05:00:00 6.9 0 Calma 5 Este 0 -- -- 84
2019-09-28 04:00:00 8.1 0 Calma 3 Noroeste 0 -- -- 84
2019-09-28 03:00:00 9 3 Sur 7 Sudoeste 0 -- -- 80
2019-09-28 02:00:00 10.1 5 Sudoeste 8 Sur 0 -- -- 80
2019-09-28 01:00:00 10.9 3 Sur 6 Sur 0 -- -- 72
2019-09-28 00:00:00 12.7 0 Calma 6 Noroeste 0 -- -- 70
2019-09-27 23:00:00 14.4 6 Noroeste 9 Noroeste 0 -- -- 68
2019-09-27 22:00:00 16.4 7 Noroeste 11 Noroeste 0 -- -- 63
2019-09-27 21:00:00 18.3 9 Noroeste 21 Noroeste 0 -- -- 57
2019-09-27 20:00:00 21.7 18 Noroeste 34 Oeste 0 -- -- 51
2019-09-27 19:00:00 24 22 Sudoeste 33 Sudoeste 0 -- -- 47
2019-09-27 18:00:00 26 26 Oeste 36 Oeste 0 -- -- 42
2019-09-27 17:00:00 25.8 14 Oeste 35 Oeste 0 -- -- 39
2019-09-27 16:00:00 25.1 5 Sur 19 Sudoeste 0 -- -- 38
2019-09-27 15:00:00 24 5 Sur 21 Sudoeste 0 -- -- 35
2019-09-27 14:00:00 22.9 8 Sur 14 Sur 0 -- -- 37
2019-09-27 13:00:00 21.3 8 Sur 15 Sur 0 -- -- 44
2019-09-27 12:00:00 18.5 9 Sur 16 Sur 0 -- -- 48
2019-09-27 11:00:00 14.9 9 Sur 13 Sur 0 -- -- 64
2019-09-27 10:00:00 10.4 3 Sudoeste 6 Sur 0 -- -- 78
2019-09-27 09:00:00 6.4 0 Calma 10 Noroeste 0 -- -- 90
2019-09-27 08:00:00 4.5 5 Noroeste 9 Noroeste 0 -- -- 87
2019-09-27 07:00:00 5.4 3 Este 8 Noroeste 0 -- -- 84
2019-09-27 06:00:00 6.4 5 Oeste 10 Sur 0 -- -- 80
2019-09-27 05:00:00 7 0 Calma 7 Oeste 0 -- -- 80
2019-09-27 04:00:00 8.3 4 Oeste 9 Noroeste 0 -- -- 81
2019-09-27 03:00:00 9.8 3 Sudeste 12 Noroeste 0 -- -- 73
2019-09-27 02:00:00 10.9 13 Noroeste 14 Norte 0 -- -- 75
2019-09-27 01:00:00 11.8 5 Noroeste 9 Sudoeste 0 -- -- 65
2019-09-27 00:00:00 13.4 5 Sudoeste 8 Sudoeste 0 -- -- 64
2019-09-26 23:00:00 14.8 5 Sudoeste 6 Sudoeste 0 -- -- 61
2019-09-26 22:00:00 16.7 0 Calma 12 Oeste 0 -- -- 49
2019-09-26 21:00:00 20.2 8 Sudoeste 17 Sudoeste 0 -- -- 39
2019-09-26 20:00:00 23.7 13 Sudoeste 24 Sudoeste 0 -- -- 29
2019-09-26 19:00:00 26.3 15 Sudoeste 24 Sudoeste 0 -- -- 24
2019-09-26 18:00:00 27.1 13 Oeste 21 Sudoeste 0 -- -- 23
2019-09-26 17:00:00 26.8 12 Sudoeste 26 Sudoeste 0 -- -- 23
2019-09-26 16:00:00 26 16 Sudoeste 26 Sudoeste 0 -- -- 25
2019-09-26 15:00:00 24.5 15 Sudoeste 27 Sudoeste 0 -- -- 34
2019-09-26 14:00:00 22.3 12 Sudoeste 28 Sudoeste 0 -- -- 39
2019-09-26 13:00:00 20.3 14 Sudoeste 25 Sudoeste 0 -- -- 45
2019-09-26 12:00:00 17.5 11 Sur 19 Sur 0 -- -- 60
2019-09-26 11:00:00 14.3 6 Sudoeste 11 Sudoeste 0 -- -- 75
2019-09-26 10:00:00 11.6 5 Sudoeste 9 Sur 0 -- -- 85
2019-09-26 09:00:00 8.5 0 Calma 8 Sur 0 -- -- 92
2019-09-26 08:00:00 7 5 Sudeste 8 Este 0 -- -- 89
2019-09-26 07:00:00 7.7 0 Calma 6 Este 0 -- -- 88
2019-09-26 06:00:00 8.1 0 Calma 3 Sudeste 0 -- -- 86
2019-09-26 05:00:00 9.2 0 Calma 5 Sudoeste 0 -- -- 83
2019-09-26 04:00:00 10.1 2 Sur 6 Sudoeste 0 -- -- 82
2019-09-26 03:00:00 11.1 2 Sur 8 Sur 0 -- -- 79
2019-09-26 02:00:00 11.8 0 Calma 9 Norte 0 -- -- 81
2019-09-26 01:00:00 12.5 3 Nordeste 9 Norte 0 -- -- 75
2019-09-26 00:00:00 13.1 6 Noroeste 13 Norte 0 -- -- 72
2019-09-25 23:00:00 14.9 5 Sudoeste 8 Sur 0 -- -- 67
2019-09-25 22:00:00 16.9 4 Sudoeste 14 Sudoeste 0 -- -- 61
2019-09-25 21:00:00 18.9 13 Sudoeste 19 Sudoeste 0 -- -- 54
2019-09-25 20:00:00 21.3 11 Sudoeste 24 Sudoeste 0 -- -- 47
2019-09-25 19:00:00 22.3 10 Sudoeste 21 Sudoeste 0 -- -- 43
2019-09-25 18:00:00 22.8 12 Sudoeste 22 Sudoeste 0 -- -- 40
2019-09-25 17:00:00 22.4 12 Sudoeste 23 Sur 0 -- -- 40
2019-09-25 16:00:00 22.1 11 Oeste 22 Oeste 0 -- -- 40
2019-09-25 15:00:00 20.8 10 Sudoeste 18 Sudoeste 0 -- -- 43
2019-09-25 14:00:00 19.7 6 Oeste 16 Oeste 0 -- -- 46
2019-09-25 13:00:00 18.4 10 Oeste 20 Sudoeste 0 -- -- 51
2019-09-25 12:00:00 16.9 4 Oeste 13 Oeste 0 -- -- 55
2019-09-25 11:00:00 14.7 5 Sudoeste 10 Sudoeste 0 -- -- 63
2019-09-25 10:00:00 11.1 5 Oeste 12 Oeste 0 -- -- 80
2019-09-25 09:00:00 7.7 6 Sudoeste 12 Sudoeste 0 -- -- 89
2019-09-25 08:00:00 7.1 0 Calma 10 Sur 0 -- -- 86
2019-09-25 07:00:00 8.2 7 Sur 12 Sur 0 -- -- 88
2019-09-25 06:00:00 8 6 Oeste 9 Oeste 0 -- -- 86
2019-09-25 05:00:00 9.3 4 Sudoeste 9 Sudoeste 0 -- -- 85
2019-09-25 04:00:00 9.3 5 Sur 9 Oeste 0 -- -- 86
2019-09-25 03:00:00 10.4 6 Noroeste 14 Oeste 0 -- -- 81
2019-09-25 02:00:00 11.8 11 Oeste 19 Oeste 0 -- -- 76
2019-09-25 01:00:00 13.5 13 Sudoeste 23 Oeste 0 -- -- 73
2019-09-25 00:00:00 14.1 15 Oeste 27 Oeste 0 -- -- 69
2019-09-24 23:00:00 15.5 19 Oeste 36 Sudoeste 0 -- -- 65
2019-09-24 22:00:00 16.8 17 Oeste 27 Oeste 0 -- -- 61
2019-09-24 21:00:00 17.9 17 Oeste 34 Oeste 0 -- -- 58
2019-09-24 20:00:00 20.3 25 Oeste 45 Oeste 0 -- -- 49
2019-09-24 19:00:00 22.6 26 Oeste 60 Oeste 0 -- -- 44
2019-09-24 18:00:00 23.4 32 Oeste 53 Oeste 0 -- -- 44
2019-09-24 17:00:00 23.8 33 Oeste 46 Oeste 0 -- -- 43
2019-09-24 16:00:00 22 27 Oeste 55 Sudoeste 0 -- -- 57
2019-09-24 15:00:00 21.2 23 Oeste 45 Sudoeste 0 -- -- 62
2019-09-24 14:00:00 21.3 27 Sudoeste 45 Sudoeste 0 -- -- 62
2019-09-24 13:00:00 20.4 27 Sudoeste 47 Sudoeste 0 -- -- 65
2019-09-24 12:00:00 18.9 31 Sudoeste 46 Sudoeste 0 -- -- 70
2019-09-24 11:00:00 16.4 15 Sudoeste 27 Sudoeste 0 -- -- 76
2019-09-24 10:00:00 14.6 9 Sur 17 Sudoeste 0 -- -- 81
2019-09-24 09:00:00 13 5 Sur 16 Sudoeste 0 -- -- 87
2019-09-24 08:00:00 12 13 Sudoeste 20 Sur 0 -- -- 89
2019-09-24 07:00:00 11 9 Sudoeste 15 Sur 0 -- -- 88
2019-09-24 06:00:00 11.9 9 Sur 16 Sudoeste 0 -- -- 87
2019-09-24 05:00:00 11.9 7 Sudoeste 17 Sudoeste 0 -- -- 86
2019-09-24 04:00:00 12.2 11 Sudoeste 19 Sudoeste 0 -- -- 85
2019-09-24 03:00:00 12.4 4 Sudoeste 12 Sur 0 -- -- 78
2019-09-24 02:00:00 13.7 9 Sur 15 Sudoeste 0 -- -- 75
2019-09-24 01:00:00 14.6 10 Sudoeste 15 Sudoeste 0 -- -- 70
2019-09-24 00:00:00 13.9 2 Sudoeste 9 Oeste 0 -- -- 70
2019-09-23 23:00:00 16.5 4 Sur 12 Sudoeste 0 -- -- 63
2019-09-23 22:00:00 17.7 8 Sudoeste 19 Sudoeste 0 -- -- 57
2019-09-23 21:00:00 18.9 10 Sudoeste 24 Oeste 0 -- -- 53
2019-09-23 20:00:00 21 18 Sudoeste 30 Sudoeste 0 -- -- 45
2019-09-23 19:00:00 22.6 18 Sudoeste 28 Sudoeste 0 -- -- 41
2019-09-23 18:00:00 22.4 14 Sudoeste 28 Sudoeste 0 -- -- 43
2019-09-23 17:00:00 22.4 15 Sudoeste 30 Sudoeste 0 -- -- 42
2019-09-23 16:00:00 21.2 17 Sudoeste 28 Sudoeste 0 -- -- 43
2019-09-23 15:00:00 20.8 16 Sudoeste 29 Sudoeste 0 -- -- 46
2019-09-23 14:00:00 18.9 16 Sudoeste 30 Sudoeste 0 -- -- 53
2019-09-23 13:00:00 17 14 Sudoeste 27 Sudoeste 0 -- -- 61
2019-09-23 12:00:00 15.5 13 Sudoeste 22 Sur 0 -- -- 69
2019-09-23 11:00:00 12.9 9 Sudoeste 21 Sudoeste 0 -- -- 83
2019-09-23 10:00:00 10.9 13 Sudoeste 21 Sur 0 -- -- 89
2019-09-23 09:00:00 9.6 13 Sur 21 Sur 0 -- -- 92
2019-09-23 08:00:00 8.5 12 Sur 18 Sur 0 -- -- 92
2019-09-23 07:00:00 8.2 10 Sur 13 Sur 0 -- -- 90
2019-09-23 06:00:00 8.8 5 Sur 17 Sur 0 -- -- 89
2019-09-23 05:00:00 8.8 8 Sur 12 Sur 0 -- -- 89
2019-09-23 04:00:00 9.5 4 Sur 7 Sur 0 -- -- 86
2019-09-23 03:00:00 9.4 0 Calma 7 Sudoeste 0 -- -- 82
2019-09-23 02:00:00 10.2 5 Sudoeste 12 Oeste 0 -- -- 81
2019-09-23 01:00:00 11.2 7 Sudoeste 17 Sudoeste 0 -- -- 77
2019-09-23 00:00:00 12.6 9 Sudoeste 12 Sudoeste 0 -- -- 73
2019-09-22 23:00:00 12.7 4 Sudoeste 10 Sur 0 -- -- 73
2019-09-22 22:00:00 14.5 6 Oeste 20 Sudoeste 0 -- -- 64
2019-09-22 21:00:00 16.8 17 Sudoeste 24 Sudoeste 0 -- -- 55
2019-09-22 20:00:00 19 18 Sudoeste 29 Oeste 0 -- -- 44
2019-09-22 19:00:00 20.4 17 Sudoeste 29 Sudoeste 0 -- -- 39
2019-09-22 18:00:00 20.8 18 Oeste 36 Sudoeste 0 -- -- 37
2019-09-22 17:00:00 21.2 20 Oeste 35 Oeste 0 -- -- 36
2019-09-22 16:00:00 20.7 21 Sudoeste 40 Oeste 0 -- -- 41
2019-09-22 15:00:00 19.9 22 Oeste 41 Oeste 0 -- -- 46
2019-09-22 14:00:00 18.6 22 Sudoeste 37 Sudoeste 0 -- -- 50
2019-09-22 13:00:00 16.1 18 Oeste 32 Oeste 0 -- -- 66
2019-09-22 12:00:00 16.3 14 Sudoeste 29 Sudoeste 0 -- -- 69
2019-09-22 11:00:00 13.9 21 Sudoeste 30 Sur 0 -- -- 82
2019-09-22 10:00:00 12.9 17 Sur 27 Sudoeste 0 -- -- 86
2019-09-22 09:00:00 11.8 14 Sur 24 Sur 0 -- -- 91
2019-09-22 08:00:00 11.1 13 Sur 24 Sur 0 -- -- 92
2019-09-22 07:00:00 11.3 14 Sur 24 Sur 0 -- -- 91
2019-09-22 06:00:00 11.1 15 Sur 22 Sur 0 -- -- 91
2019-09-22 05:00:00 11.4 10 Sudoeste 25 Sudoeste 0.2 -- -- 90
2019-09-22 04:00:00 12.1 14 Sudoeste 27 Sudoeste 0 -- -- 88
2019-09-22 03:00:00 12.8 18 Sudoeste 28 Sudoeste 0 -- -- 88
2019-09-22 02:00:00 13.1 18 Sudoeste 30 Sudoeste 0 -- -- 84
2019-09-22 01:00:00 13.4 20 Oeste 44 Oeste 0.2 -- -- 87
2019-09-22 00:00:00 16.5 13 Sudoeste 30 Sur 0 -- -- 90
2019-09-21 23:00:00 16.4 16 Sur 29 Sur 0.4 -- -- 88
2019-09-21 22:00:00 16.8 9 Sur 25 Sudoeste 0.4 -- -- 86
2019-09-21 21:00:00 17 15 Sur 27 Sur 0 -- -- 83
2019-09-21 20:00:00 17.3 15 Sur 35 Sur 0.2 -- -- 84
2019-09-21 19:00:00 18.3 18 Sur 40 Sur 0 -- -- 77
2019-09-21 18:00:00 19.5 19 Sudoeste 28 Sudoeste 0 -- -- 70
2019-09-21 17:00:00 18.6 10 Sur 31 Sur 0 -- -- 75
2019-09-21 16:00:00 18.8 23 Sudeste 31 Sudeste 0 -- -- 75
2019-09-21 15:00:00 17.2 19 Sur 36 Sur 0.2 -- -- 87
2019-09-21 14:00:00 17.1 19 Sur 37 Sur 0 -- -- 83
2019-09-21 13:00:00 16.7 21 Sur 32 Sur 0.2 -- -- 86
2019-09-21 12:00:00 16.4 15 Sur 26 Sur 0 -- -- 86
2019-09-21 11:00:00 16.5 14 Sur 27 Sur 0.4 -- -- 82
2019-09-21 10:00:00 17.3 19 Sur 28 Sur 0 -- -- 71
2019-09-21 09:00:00 16.3 12 Sur 18 Sur 0 -- -- 74
2019-09-21 08:00:00 16.1 11 Sudeste 18 Sudeste 0 -- -- 74
2019-09-21 07:00:00 16.2 9 Sur 16 Sur 0 -- -- 74
2019-09-21 06:00:00 16.2 11 Sur 17 Sur 0 -- -- 74
2019-09-21 05:00:00 16.5 11 Sudoeste 21 Sudoeste 0 -- -- 72
2019-09-21 04:00:00 17.5 8 Sur 15 Sur 0 -- -- 70
2019-09-21 03:00:00 17.5 9 Sur 16 Sur 0 -- -- 70
2019-09-21 02:00:00 17.6 7 Sur 15 Sur 0 -- -- 67
2019-09-21 01:00:00 18.9 9 Sur 14 Sur 0 -- -- 63
2019-09-21 00:00:00 19.7 11 Sur 18 Sur 0 -- -- 62
2019-09-20 23:00:00 20.1 11 Sur 18 Sur 0 -- -- 59
2019-09-20 22:00:00 21.1 10 Sur 21 Sur 0 -- -- 57
2019-09-20 21:00:00 21.9 4 Sur 33 Sudoeste 0 -- -- 54
2019-09-20 20:00:00 22.9 20 Sudoeste 41 Sudoeste 0 -- -- 44
2019-09-20 19:00:00 25.3 10 Sudoeste 36 Sudoeste 0 -- -- 40
2019-09-20 18:00:00 25.6 22 Sudoeste 33 Sur 0 -- -- 38
2019-09-20 17:00:00 27.4 15 Sur 28 Sur 0 -- -- 33
2019-09-20 16:00:00 26 13 Sudoeste 26 Sur 0 -- -- 41
2019-09-20 15:00:00 26.4 12 Sur 28 Sur 0 -- -- 41
2019-09-20 14:00:00 25.3 14 Sur 24 Sur 0 -- -- 44
2019-09-20 13:00:00 23.5 12 Sudoeste 19 Sudoeste 0 -- -- 51
2019-09-20 12:00:00 21.4 7 Sur 15 Sudeste 0 -- -- 63
2019-09-20 11:00:00 20.1 8 Este 17 Este 0 -- -- 68
2019-09-20 10:00:00 16.6 6 Norte 13 Noroeste 0 -- -- 84
2019-09-20 09:00:00 14.4 10 Noroeste 14 Noroeste 0 -- -- 90
2019-09-20 08:00:00 13.8 9 Noroeste 13 Norte 0 -- -- 90
2019-09-20 07:00:00 14.2 10 Norte 15 Norte 0 -- -- 89
2019-09-20 06:00:00 14.5 11 Noroeste 14 Noroeste 0 -- -- 89
2019-09-20 05:00:00 14.5 10 Noroeste 14 Noroeste 0 -- -- 88
2019-09-20 04:00:00 15.2 9 Norte 15 Norte 0 -- -- 83
2019-09-20 03:00:00 15.2 6 Norte 11 Nordeste 0 -- -- 81
2019-09-20 02:00:00 16 3 Norte 17 Nordeste 0 -- -- 74
2019-09-20 01:00:00 16.3 15 Nordeste 19 Nordeste 0 -- -- 72
2019-09-20 00:00:00 16.3 11 Nordeste 13 Nordeste 0 -- -- 73
2019-09-19 23:00:00 17.3 7 Nordeste 9 Nordeste 0 -- -- 67
2019-09-19 22:00:00 18.9 9 Nordeste 12 Nordeste 0 -- -- 61
2019-09-19 21:00:00 21.5 6 Este 12 Este 0 -- -- 54
2019-09-19 20:00:00 25.3 8 Este 12 Norte 0 -- -- 43
2019-09-19 19:00:00 27.1 6 Nordeste 17 Este 0 -- -- 40
2019-09-19 18:00:00 27.2 3 Nordeste 16 Sudeste 0 -- -- 40
2019-09-19 17:00:00 26.5 5 Este 19 Nordeste 0 -- -- 41
2019-09-19 16:00:00 26.5 5 Nordeste 22 Este 0 -- -- 41
2019-09-19 15:00:00 26.1 11 Nordeste 28 Nordeste 0 -- -- 41
2019-09-19 14:00:00 24.9 10 Este 21 Nordeste 0 -- -- 42
2019-09-19 13:00:00 22.8 11 Este 18 Nordeste 0 -- -- 53
2019-09-19 12:00:00 20.3 10 Este 17 Este 0 -- -- 66
2019-09-19 11:00:00 18.4 11 Nordeste 21 Nordeste 0 -- -- 72
2019-09-19 10:00:00 16.6 10 Norte 19 Norte 0 -- -- 85
2019-09-19 09:00:00 14.3 7 Norte 12 Norte 0 -- -- 93
2019-09-19 08:00:00 13.8 10 Norte 14 Norte 0 -- -- 93
2019-09-19 07:00:00 14.1 10 Noroeste 13 Norte 0 -- -- 91
2019-09-19 06:00:00 15.2 8 Norte 19 Norte 0 -- -- 89
2019-09-19 05:00:00 15.5 13 Norte 19 Norte 0 -- -- 90
2019-09-19 04:00:00 15.6 8 Norte 12 Nordeste 0 -- -- 88
2019-09-19 03:00:00 16.4 12 Este 26 Nordeste 0 -- -- 86
2019-09-19 02:00:00 16.9 12 Nordeste 21 Nordeste 0 -- -- 86
2019-09-19 01:00:00 17 13 Este 26 Este 0 -- -- 84
2019-09-19 00:00:00 17 12 Nordeste 17 Este 0 -- -- 83
2019-09-18 23:00:00 18 0 Calma -- -- 0 -- -- 79
2019-09-18 22:00:00 19.4 0 Calma 10 Nordeste 0 -- -- 72
2019-09-18 21:00:00 21.1 8 Nordeste 16 Nordeste 0 -- -- 63
2019-09-18 20:00:00 24.4 6 Nordeste 12 Noroeste 0 -- -- 52
2019-09-18 19:00:00 25.7 7 Nordeste 19 Nordeste 0 -- -- 50
2019-09-18 18:00:00 26.3 5 Nordeste 13 Nordeste 0 -- -- 46
2019-09-18 17:00:00 26 4 Nordeste 15 Nordeste 0 -- -- 47
2019-09-18 16:00:00 25.3 5 Nordeste 16 Nordeste 0 -- -- 51
2019-09-18 15:00:00 24.1 7 Norte 18 Norte 0 -- -- 55
2019-09-18 14:00:00 23 8 Nordeste 14 Nordeste 0 -- -- 60
2019-09-18 13:00:00 21.4 4 Nordeste 12 Norte 0 -- -- 63
2019-09-18 12:00:00 19.4 4 Norte 12 Noroeste 0 -- -- 74
2019-09-18 11:00:00 17.6 7 Noroeste 17 Norte 0 -- -- 83
2019-09-18 10:00:00 15.3 12 Noroeste 18 Noroeste 0 -- -- 92
2019-09-18 09:00:00 13.8 8 Noroeste 12 Noroeste 0 -- -- 95
2019-09-18 08:00:00 13.5 8 Noroeste 10 Noroeste 0 -- -- 93
2019-09-18 07:00:00 14.4 7 Noroeste 9 Noroeste 0 -- -- 93
2019-09-18 06:00:00 14.5 7 Oeste 9 Oeste 0 -- -- 93
2019-09-18 05:00:00 14.2 5 Norte 6 Norte 0 -- -- 92
2019-09-18 04:00:00 14.6 3 Nordeste 12 Nordeste 0 -- -- 89
2019-09-18 03:00:00 15.4 9 Este 27 Este 0 -- -- 89
2019-09-18 02:00:00 15.7 15 Nordeste 32 Noroeste 0.2 -- -- 89
2019-09-18 01:00:00 16.4 20 Noroeste 30 Norte 0.2 -- -- 87
2019-09-18 00:00:00 16.5 2 Sudoeste 25 Sudeste 0.4 -- -- 85
2019-09-17 23:00:00 16 24 Sudeste 50 Sudeste 5.8 -- -- 85
2019-09-17 22:00:00 18.8 10 Noroeste 29 Noroeste 0 -- -- 72
2019-09-17 21:00:00 19.8 22 Noroeste 40 Noroeste 0 -- -- 63
2019-09-15 18:00:00 -- -- -- -- -- -- -- -- --
2019-09-15 17:00:00 20.2 16 Nordeste 33 Nordeste 0.2 -- -- 74
2019-09-15 16:00:00 18.6 23 Este 48 Nordeste 0 -- -- 80
2019-09-15 15:00:00 22.7 19 Nordeste 34 Nordeste 0 -- -- 55
2019-09-15 14:00:00 21.7 19 Nordeste 31 Nordeste 0.2 -- -- 62
2019-09-15 13:00:00 19.1 23 Norte 31 Nordeste 0 -- -- 74
2019-09-15 12:00:00 19.9 15 Nordeste 30 Nordeste 0 -- -- 65
2019-09-15 11:00:00 18.1 12 Nordeste 17 Nordeste 0 -- -- 76
2019-09-15 10:00:00 16.6 8 Norte 14 Noroeste 0 -- -- 87
2019-09-15 09:00:00 15.7 5 Nordeste 15 Nordeste 4.6 -- -- 89
2019-09-15 08:00:00 15.8 8 Norte 22 Nordeste 0.2 -- -- 87
2019-09-15 07:00:00 15.8 13 Norte 24 Nordeste 0.2 -- -- 84
2019-09-15 06:00:00 15.9 10 Norte 17 Norte 0 -- -- 84
2019-09-15 05:00:00 16.4 14 Norte 18 Norte 0 -- -- 84
2019-09-15 04:00:00 16.8 13 Norte 17 Norte 0 -- -- 85
2019-09-15 03:00:00 16.9 12 Norte 24 Norte 0.2 -- -- 85
2019-09-15 02:00:00 17.2 12 Nordeste 15 Norte 0.2 -- -- 83
2019-09-15 01:00:00 17.9 8 Nordeste 19 Este 0.2 -- -- 77
2019-09-15 00:00:00 19.1 13 Este 21 Este 0 -- -- 62
2019-09-14 23:00:00 19.6 12 Este 19 Este 0 -- -- 59
2019-09-14 22:00:00 20.1 12 Este 28 Este 0 -- -- 56
2019-09-14 21:00:00 20.6 19 Este 42 Sudeste 0 -- -- 54
2019-09-14 20:00:00 22.4 36 Sudeste 50 Sudeste 0 -- -- 50
2019-09-14 19:00:00 24.6 23 Sudeste 38 Sudeste 0 -- -- 43
2019-09-14 18:00:00 25.7 28 Sudeste 37 Sudeste 0 -- -- 38
2019-09-14 17:00:00 27.8 26 Este 48 Este 0 -- -- 32
2019-09-14 16:00:00 28.5 27 Este 51 Este 0 -- -- 32
2019-09-14 15:00:00 28.2 32 Este 50 Este 0 -- -- 33
2019-09-14 14:00:00 27.5 28 Nordeste 49 Este 0 -- -- 36
2019-09-14 13:00:00 26.3 22 Nordeste 38 Este 0 -- -- 40
2019-09-14 12:00:00 24 19 Nordeste 30 Este 0 -- -- 47
2019-09-14 11:00:00 22.2 22 Nordeste 33 Este 0 -- -- 54
2019-09-14 10:00:00 18.8 18 Nordeste 35 Nordeste 0 -- -- 66
2019-09-14 09:00:00 16.4 15 Nordeste 22 Nordeste 0 -- -- 73
2019-09-14 08:00:00 15.3 6 Nordeste 11 Este 0 -- -- 77
2019-09-14 07:00:00 15.7 9 Nordeste 15 Nordeste 0 -- -- 73
2019-09-14 06:00:00 -- -- -- -- -- -- -- -- --
2019-09-14 05:00:00 15.6 18 Nordeste 25 Nordeste 0 -- -- 70
2019-09-14 04:00:00 15.9 14 Nordeste 23 Nordeste 0 -- -- 70
2019-09-14 03:00:00 15.8 15 Nordeste 23 Nordeste 0 -- -- 75
2019-09-14 02:00:00 16.1 12 Nordeste 24 Nordeste 0 -- -- 76
2019-09-14 01:00:00 16.9 13 Nordeste 27 Nordeste 0 -- -- 75
2019-09-14 00:00:00 17.1 14 Nordeste 25 Nordeste 0 -- -- 77